sensor_id;sensor_type;location;lat;lon;timestamp;P1;durP1;ratioP1;P2;durP2;ratioP2
7181;SDS011;3632;42.724;23.298;2023-06-14T00:01:07;7.13;;;5.50;;
7181;SDS011;3632;42.724;23.298;2023-06-14T00:03:34;9.17;;;8.10;;
7181;SDS011;3632;42.724;23.298;2023-06-14T00:06:01;7.50;;;6.73;;
7181;SDS011;3632;42.724;23.298;2023-06-14T00:08:28;6.53;;;5.67;;
7181;SDS011;3632;42.724;23.298;2023-06-14T00:10:56;6.43;;;5.73;;
7181;SDS011;3632;42.724;23.298;2023-06-14T00:13:22;7.30;;;4.93;;
7181;SDS011;3632;42.724;23.298;2023-06-14T00:15:50;5.33;;;4.93;;
7181;SDS011;3632;42.724;23.298;2023-06-14T00:18:20;5.77;;;5.17;;
7181;SDS011;3632;42.724;23.298;2023-06-14T00:20:49;8.20;;;5.30;;
7181;SDS011;3632;42.724;23.298;2023-06-14T00:23:16;5.10;;;4.70;;
7181;SDS011;3632;42.724;23.298;2023-06-14T00:25:43;6.37;;;5.27;;
7181;SDS011;3632;42.724;23.298;2023-06-14T00:28:11;7.37;;;5.33;;
7181;SDS011;3632;42.724;23.298;2023-06-14T00:30:38;6.03;;;5.43;;
7181;SDS011;3632;42.724;23.298;2023-06-14T00:33:05;5.93;;;5.33;;
7181;SDS011;3632;42.724;23.298;2023-06-14T00:35:32;5.87;;;5.07;;
7181;SDS011;3632;42.724;23.298;2023-06-14T00:37:59;8.43;;;5.60;;
7181;SDS011;3632;42.724;23.298;2023-06-14T00:40:26;5.97;;;5.37;;
7181;SDS011;3632;42.724;23.298;2023-06-14T00:42:53;6.27;;;5.67;;
7181;SDS011;3632;42.724;23.298;2023-06-14T00:45:21;6.17;;;5.57;;
7181;SDS011;3632;42.724;23.298;2023-06-14T00:47:48;6.40;;;5.80;;
7181;SDS011;3632;42.724;23.298;2023-06-14T00:50:17;6.70;;;5.87;;
7181;SDS011;3632;42.724;23.298;2023-06-14T00:52:46;7.47;;;5.87;;
7181;SDS011;3632;42.724;23.298;2023-06-14T00:55:13;6.23;;;5.73;;
7181;SDS011;3632;42.724;23.298;2023-06-14T00:57:40;6.53;;;6.00;;
7181;SDS011;3632;42.724;23.298;2023-06-14T01:00:07;6.80;;;6.07;;
7181;SDS011;3632;42.724;23.298;2023-06-14T01:02:37;6.80;;;6.20;;
7181;SDS011;3632;42.724;23.298;2023-06-14T01:05:04;7.13;;;6.20;;
7181;SDS011;3632;42.724;23.298;2023-06-14T01:07:34;6.03;;;5.53;;
7181;SDS011;3632;42.724;23.298;2023-06-14T01:10:13;6.50;;;5.83;;
7181;SDS011;3632;42.724;23.298;2023-06-14T01:12:58;6.17;;;5.60;;
7181;SDS011;3632;42.724;23.298;2023-06-14T01:15:31;7.50;;;6.03;;
7181;SDS011;3632;42.724;23.298;2023-06-14T01:18:00;7.53;;;6.43;;
7181;SDS011;3632;42.724;23.298;2023-06-14T01:20:29;6.53;;;5.93;;
7181;SDS011;3632;42.724;23.298;2023-06-14T01:22:59;6.70;;;6.13;;
7181;SDS011;3632;42.724;23.298;2023-06-14T01:25:26;6.50;;;5.97;;
7181;SDS011;3632;42.724;23.298;2023-06-14T01:27:53;6.23;;;5.73;;
7181;SDS011;3632;42.724;23.298;2023-06-14T01:30:24;6.07;;;5.57;;
7181;SDS011;3632;42.724;23.298;2023-06-14T01:32:53;6.20;;;5.60;;
7181;SDS011;3632;42.724;23.298;2023-06-14T01:35:21;6.30;;;5.70;;
7181;SDS011;3632;42.724;23.298;2023-06-14T01:37:49;7.07;;;6.40;;
7181;SDS011;3632;42.724;23.298;2023-06-14T01:40:19;10.07;;;8.90;;
7181;SDS011;3632;42.724;23.298;2023-06-14T01:42:47;10.53;;;9.20;;
7181;SDS011;3632;42.724;23.298;2023-06-14T01:45:15;7.07;;;6.43;;
7181;SDS011;3632;42.724;23.298;2023-06-14T01:47:43;8.67;;;6.47;;
7181;SDS011;3632;42.724;23.298;2023-06-14T01:50:11;8.53;;;6.33;;
7181;SDS011;3632;42.724;23.298;2023-06-14T01:52:37;6.67;;;6.07;;
7181;SDS011;3632;42.724;23.298;2023-06-14T01:55:05;7.80;;;5.90;;
7181;SDS011;3632;42.724;23.298;2023-06-14T01:57:34;5.93;;;5.43;;
7181;SDS011;3632;42.724;23.298;2023-06-14T02:00:01;6.20;;;5.60;;
7181;SDS011;3632;42.724;23.298;2023-06-14T02:02:29;10.37;;;6.13;;
7181;SDS011;3632;42.724;23.298;2023-06-14T02:04:55;6.43;;;5.80;;
7181;SDS011;3632;42.724;23.298;2023-06-14T02:07:22;6.37;;;5.77;;
7181;SDS011;3632;42.724;23.298;2023-06-14T02:09:49;6.37;;;5.73;;
7181;SDS011;3632;42.724;23.298;2023-06-14T02:12:16;6.03;;;5.53;;
7181;SDS011;3632;42.724;23.298;2023-06-14T02:14:44;8.30;;;6.03;;
7181;SDS011;3632;42.724;23.298;2023-06-14T02:17:10;10.67;;;7.60;;
7181;SDS011;3632;42.724;23.298;2023-06-14T02:19:37;10.57;;;9.53;;
7181;SDS011;3632;42.724;23.298;2023-06-14T02:22:04;9.30;;;7.40;;
7181;SDS011;3632;42.724;23.298;2023-06-14T02:24:31;9.90;;;6.47;;
7181;SDS011;3632;42.724;23.298;2023-06-14T02:26:58;7.80;;;6.23;;
7181;SDS011;3632;42.724;23.298;2023-06-14T02:29:25;6.30;;;5.80;;
7181;SDS011;3632;42.724;23.298;2023-06-14T02:31:53;5.90;;;5.30;;
7181;SDS011;3632;42.724;23.298;2023-06-14T02:34:19;7.63;;;6.10;;
7181;SDS011;3632;42.724;23.298;2023-06-14T02:36:47;6.80;;;6.07;;
7181;SDS011;3632;42.724;23.298;2023-06-14T02:39:13;6.40;;;5.60;;
7181;SDS011;3632;42.724;23.298;2023-06-14T02:41:40;6.37;;;5.77;;
7181;SDS011;3632;42.724;23.298;2023-06-14T02:44:07;6.00;;;5.50;;
7181;SDS011;3632;42.724;23.298;2023-06-14T02:46:33;6.97;;;5.73;;
7181;SDS011;3632;42.724;23.298;2023-06-14T02:49:02;8.33;;;5.97;;
7181;SDS011;3632;42.724;23.298;2023-06-14T02:51:28;6.63;;;6.03;;
7181;SDS011;3632;42.724;23.298;2023-06-14T02:53:55;7.87;;;5.73;;
7181;SDS011;3632;42.724;23.298;2023-06-14T02:56:22;7.10;;;6.40;;
7181;SDS011;3632;42.724;23.298;2023-06-14T02:58:51;7.80;;;5.50;;
7181;SDS011;3632;42.724;23.298;2023-06-14T03:01:18;8.73;;;6.50;;
7181;SDS011;3632;42.724;23.298;2023-06-14T03:03:45;10.20;;;6.37;;
7181;SDS011;3632;42.724;23.298;2023-06-14T03:06:14;8.60;;;6.23;;
7181;SDS011;3632;42.724;23.298;2023-06-14T03:08:41;6.73;;;6.13;;
7181;SDS011;3632;42.724;23.298;2023-06-14T03:11:09;7.20;;;5.93;;
7181;SDS011;3632;42.724;23.298;2023-06-14T03:13:35;5.90;;;5.43;;
7181;SDS011;3632;42.724;23.298;2023-06-14T03:16:03;6.40;;;5.67;;
7181;SDS011;3632;42.724;23.298;2023-06-14T03:18:30;6.17;;;5.60;;
7181;SDS011;3632;42.724;23.298;2023-06-14T03:21:00;8.60;;;5.83;;
7181;SDS011;3632;42.724;23.298;2023-06-14T03:23:29;6.37;;;5.77;;
7181;SDS011;3632;42.724;23.298;2023-06-14T03:25:56;8.13;;;6.20;;
7181;SDS011;3632;42.724;23.298;2023-06-14T03:28:23;8.27;;;6.20;;
7181;SDS011;3632;42.724;23.298;2023-06-14T03:30:51;7.33;;;6.43;;
7181;SDS011;3632;42.724;23.298;2023-06-14T03:33:17;8.17;;;5.90;;
7181;SDS011;3632;42.724;23.298;2023-06-14T03:35:46;6.50;;;5.90;;
7181;SDS011;3632;42.724;23.298;2023-06-14T03:38:12;7.50;;;5.70;;
7181;SDS011;3632;42.724;23.298;2023-06-14T03:40:41;6.17;;;5.60;;
7181;SDS011;3632;42.724;23.298;2023-06-14T03:43:09;6.23;;;5.60;;
7181;SDS011;3632;42.724;23.298;2023-06-14T03:45:36;6.23;;;5.63;;
7181;SDS011;3632;42.724;23.298;2023-06-14T03:48:03;6.17;;;5.67;;
7181;SDS011;3632;42.724;23.298;2023-06-14T03:50:31;6.27;;;5.70;;
7181;SDS011;3632;42.724;23.298;2023-06-14T03:52:58;7.67;;;4.97;;
7181;SDS011;3632;42.724;23.298;2023-06-14T03:55:26;5.83;;;5.33;;
7181;SDS011;3632;42.724;23.298;2023-06-14T03:57:54;6.30;;;5.47;;
7181;SDS011;3632;42.724;23.298;2023-06-14T04:00:21;5.83;;;5.13;;
7181;SDS011;3632;42.724;23.298;2023-06-14T04:02:48;6.90;;;5.50;;
7181;SDS011;3632;42.724;23.298;2023-06-14T04:05:15;5.83;;;5.33;;
7181;SDS011;3632;42.724;23.298;2023-06-14T04:07:44;7.23;;;5.23;;
7181;SDS011;3632;42.724;23.298;2023-06-14T04:10:14;5.77;;;5.13;;
7181;SDS011;3632;42.724;23.298;2023-06-14T04:12:42;8.33;;;7.27;;
7181;SDS011;3632;42.724;23.298;2023-06-14T04:15:10;9.37;;;8.20;;
7181;SDS011;3632;42.724;23.298;2023-06-14T04:17:37;6.97;;;6.27;;
7181;SDS011;3632;42.724;23.298;2023-06-14T04:20:05;7.03;;;6.10;;
7181;SDS011;3632;42.724;23.298;2023-06-14T04:22:34;6.33;;;5.63;;
7181;SDS011;3632;42.724;23.298;2023-06-14T04:25:02;10.23;;;6.50;;
7181;SDS011;3632;42.724;23.298;2023-06-14T04:27:31;7.10;;;6.40;;
7181;SDS011;3632;42.724;23.298;2023-06-14T04:30:01;6.53;;;5.87;;
7181;SDS011;3632;42.724;23.298;2023-06-14T04:32:29;6.50;;;5.90;;
7181;SDS011;3632;42.724;23.298;2023-06-14T04:34:58;10.03;;;6.83;;
7181;SDS011;3632;42.724;23.298;2023-06-14T04:37:27;6.80;;;6.10;;
7181;SDS011;3632;42.724;23.298;2023-06-14T04:39:55;14.20;;;11.27;;
7181;SDS011;3632;42.724;23.298;2023-06-14T04:42:22;10.27;;;8.20;;
7181;SDS011;3632;42.724;23.298;2023-06-14T04:44:56;7.50;;;6.80;;
7181;SDS011;3632;42.724;23.298;2023-06-14T04:47:23;10.27;;;7.17;;
7181;SDS011;3632;42.724;23.298;2023-06-14T04:49:56;8.37;;;6.73;;
7181;SDS011;3632;42.724;23.298;2023-06-14T04:52:25;8.90;;;6.50;;
7181;SDS011;3632;42.724;23.298;2023-06-14T04:54:54;11.40;;;9.87;;
7181;SDS011;3632;42.724;23.298;2023-06-14T04:57:21;8.07;;;7.27;;
7181;SDS011;3632;42.724;23.298;2023-06-14T04:59:50;8.10;;;6.20;;
7181;SDS011;3632;42.724;23.298;2023-06-14T05:02:20;5.93;;;5.33;;
7181;SDS011;3632;42.724;23.298;2023-06-14T05:04:48;6.67;;;6.07;;
7181;SDS011;3632;42.724;23.298;2023-06-14T05:07:17;6.90;;;6.20;;
7181;SDS011;3632;42.724;23.298;2023-06-14T05:09:44;9.80;;;7.40;;
7181;SDS011;3632;42.724;23.298;2023-06-14T05:12:11;8.93;;;7.87;;
7181;SDS011;3632;42.724;23.298;2023-06-14T05:14:38;8.90;;;7.37;;
7181;SDS011;3632;42.724;23.298;2023-06-14T05:17:05;8.30;;;7.23;;
7181;SDS011;3632;42.724;23.298;2023-06-14T05:19:32;7.53;;;6.83;;
7181;SDS011;3632;42.724;23.298;2023-06-14T05:21:59;8.27;;;7.53;;
7181;SDS011;3632;42.724;23.298;2023-06-14T05:24:29;8.50;;;7.57;;
7181;SDS011;3632;42.724;23.298;2023-06-14T05:26:57;11.73;;;8.17;;
7181;SDS011;3632;42.724;23.298;2023-06-14T05:29:24;9.40;;;8.40;;
7181;SDS011;3632;42.724;23.298;2023-06-14T05:31:51;8.80;;;7.80;;
7181;SDS011;3632;42.724;23.298;2023-06-14T05:34:17;8.63;;;7.83;;
7181;SDS011;3632;42.724;23.298;2023-06-14T05:36:44;11.53;;;8.07;;
7181;SDS011;3632;42.724;23.298;2023-06-14T05:39:11;8.87;;;7.83;;
7181;SDS011;3632;42.724;23.298;2023-06-14T05:41:40;12.43;;;11.10;;
7181;SDS011;3632;42.724;23.298;2023-06-14T05:44:06;12.47;;;11.17;;
7181;SDS011;3632;42.724;23.298;2023-06-14T05:46:34;15.27;;;11.93;;
7181;SDS011;3632;42.724;23.298;2023-06-14T05:49:01;13.27;;;10.87;;
7181;SDS011;3632;42.724;23.298;2023-06-14T05:51:28;14.23;;;11.53;;
7181;SDS011;3632;42.724;23.298;2023-06-14T05:53:55;13.00;;;10.60;;
7181;SDS011;3632;42.724;23.298;2023-06-14T05:56:22;13.07;;;11.00;;
7181;SDS011;3632;42.724;23.298;2023-06-14T05:58:50;17.20;;;15.33;;
7181;SDS011;3632;42.724;23.298;2023-06-14T06:01:17;13.77;;;11.37;;
7181;SDS011;3632;42.724;23.298;2023-06-14T06:03:44;14.83;;;13.23;;
7181;SDS011;3632;42.724;23.298;2023-06-14T06:06:12;14.50;;;11.90;;
7181;SDS011;3632;42.724;23.298;2023-06-14T06:08:40;15.23;;;11.27;;
7181;SDS011;3632;42.724;23.298;2023-06-14T06:11:07;13.87;;;10.60;;
7181;SDS011;3632;42.724;23.298;2023-06-14T06:13:34;10.27;;;9.27;;
7181;SDS011;3632;42.724;23.298;2023-06-14T06:16:03;11.30;;;9.90;;
7181;SDS011;3632;42.724;23.298;2023-06-14T06:18:33;9.87;;;8.87;;
7181;SDS011;3632;42.724;23.298;2023-06-14T06:21:00;12.73;;;9.43;;
7181;SDS011;3632;42.724;23.298;2023-06-14T06:23:28;9.80;;;8.80;;
7181;SDS011;3632;42.724;23.298;2023-06-14T06:25:55;10.17;;;9.00;;
7181;SDS011;3632;42.724;23.298;2023-06-14T06:28:22;9.87;;;8.53;;
7181;SDS011;3632;42.724;23.298;2023-06-14T06:30:48;10.70;;;9.60;;
7181;SDS011;3632;42.724;23.298;2023-06-14T06:33:17;10.40;;;9.10;;
7181;SDS011;3632;42.724;23.298;2023-06-14T06:35:43;10.30;;;9.27;;
7181;SDS011;3632;42.724;23.298;2023-06-14T06:38:10;10.83;;;8.90;;
7181;SDS011;3632;42.724;23.298;2023-06-14T06:40:37;12.97;;;9.70;;
7181;SDS011;3632;42.724;23.298;2023-06-14T06:43:06;14.27;;;9.83;;
7181;SDS011;3632;42.724;23.298;2023-06-14T06:45:33;12.37;;;9.97;;
7181;SDS011;3632;42.724;23.298;2023-06-14T06:48:00;12.90;;;10.47;;
7181;SDS011;3632;42.724;23.298;2023-06-14T06:50:28;13.93;;;10.87;;
7181;SDS011;3632;42.724;23.298;2023-06-14T06:52:55;95.00;;;17.13;;
7181;SDS011;3632;42.724;23.298;2023-06-14T06:55:22;72.97;;;14.77;;
7181;SDS011;3632;42.724;23.298;2023-06-14T06:57:49;38.07;;;14.83;;
7181;SDS011;3632;42.724;23.298;2023-06-14T07:00:18;18.20;;;13.53;;
7181;SDS011;3632;42.724;23.298;2023-06-14T07:02:47;16.57;;;11.73;;
7181;SDS011;3632;42.724;23.298;2023-06-14T07:05:13;16.63;;;12.67;;
7181;SDS011;3632;42.724;23.298;2023-06-14T07:07:42;14.03;;;12.53;;
7181;SDS011;3632;42.724;23.298;2023-06-14T07:10:08;16.97;;;15.20;;
7181;SDS011;3632;42.724;23.298;2023-06-14T07:12:37;21.10;;;19.00;;
7181;SDS011;3632;42.724;23.298;2023-06-14T07:15:04;16.63;;;14.93;;
7181;SDS011;3632;42.724;23.298;2023-06-14T07:17:33;19.27;;;17.20;;
7181;SDS011;3632;42.724;23.298;2023-06-14T07:20:00;17.13;;;14.37;;
7181;SDS011;3632;42.724;23.298;2023-06-14T07:22:37;15.63;;;14.07;;
7181;SDS011;3632;42.724;23.298;2023-06-14T07:25:10;16.67;;;15.07;;
7181;SDS011;3632;42.724;23.298;2023-06-14T07:27:39;16.60;;;14.73;;
7181;SDS011;3632;42.724;23.298;2023-06-14T07:30:06;17.40;;;15.07;;
7181;SDS011;3632;42.724;23.298;2023-06-14T07:32:34;17.77;;;15.23;;
7181;SDS011;3632;42.724;23.298;2023-06-14T07:35:02;19.30;;;17.10;;
7181;SDS011;3632;42.724;23.298;2023-06-14T07:37:29;16.63;;;14.90;;
7181;SDS011;3632;42.724;23.298;2023-06-14T07:39:56;15.13;;;13.63;;
7181;SDS011;3632;42.724;23.298;2023-06-14T07:42:24;14.27;;;12.60;;
7181;SDS011;3632;42.724;23.298;2023-06-14T07:44:51;17.73;;;14.23;;
7181;SDS011;3632;42.724;23.298;2023-06-14T07:47:19;15.77;;;14.37;;
7181;SDS011;3632;42.724;23.298;2023-06-14T07:49:45;15.00;;;13.50;;
7181;SDS011;3632;42.724;23.298;2023-06-14T07:52:12;14.77;;;13.27;;
7181;SDS011;3632;42.724;23.298;2023-06-14T07:54:39;16.33;;;14.07;;
7181;SDS011;3632;42.724;23.298;2023-06-14T07:57:06;17.00;;;14.67;;
7181;SDS011;3632;42.724;23.298;2023-06-14T07:59:35;18.17;;;14.67;;
7181;SDS011;3632;42.724;23.298;2023-06-14T08:02:02;15.03;;;13.63;;
7181;SDS011;3632;42.724;23.298;2023-06-14T08:04:29;14.17;;;12.77;;
7181;SDS011;3632;42.724;23.298;2023-06-14T08:06:58;13.07;;;11.73;;
7181;SDS011;3632;42.724;23.298;2023-06-14T08:09:28;16.27;;;14.57;;
7181;SDS011;3632;42.724;23.298;2023-06-14T08:11:56;13.47;;;12.07;;
7181;SDS011;3632;42.724;23.298;2023-06-14T08:14:23;12.43;;;11.07;;
7181;SDS011;3632;42.724;23.298;2023-06-14T08:16:52;11.07;;;10.03;;
7181;SDS011;3632;42.724;23.298;2023-06-14T08:19:19;10.83;;;9.83;;
7181;SDS011;3632;42.724;23.298;2023-06-14T08:21:45;12.30;;;11.20;;
7181;SDS011;3632;42.724;23.298;2023-06-14T08:24:12;12.10;;;10.97;;
7181;SDS011;3632;42.724;23.298;2023-06-14T08:26:39;13.23;;;11.93;;
7181;SDS011;3632;42.724;23.298;2023-06-14T08:29:06;13.67;;;11.73;;
7181;SDS011;3632;42.724;23.298;2023-06-14T08:31:35;12.63;;;11.57;;
7181;SDS011;3632;42.724;23.298;2023-06-14T08:34:03;21.60;;;19.40;;
7181;SDS011;3632;42.724;23.298;2023-06-14T08:36:34;15.53;;;13.83;;
7181;SDS011;3632;42.724;23.298;2023-06-14T08:39:04;21.80;;;19.50;;
7181;SDS011;3632;42.724;23.298;2023-06-14T08:41:34;16.73;;;14.60;;
7181;SDS011;3632;42.724;23.298;2023-06-14T08:44:02;13.47;;;12.17;;
7181;SDS011;3632;42.724;23.298;2023-06-14T08:46:30;12.00;;;10.90;;
7181;SDS011;3632;42.724;23.298;2023-06-14T08:48:59;11.73;;;10.63;;
7181;SDS011;3632;42.724;23.298;2023-06-14T08:51:29;11.37;;;10.20;;
7181;SDS011;3632;42.724;23.298;2023-06-14T08:53:59;14.53;;;12.77;;
7181;SDS011;3632;42.724;23.298;2023-06-14T08:56:27;14.07;;;12.67;;
7181;SDS011;3632;42.724;23.298;2023-06-14T08:58:54;12.20;;;11.10;;
7181;SDS011;3632;42.724;23.298;2023-06-14T09:01:22;12.07;;;10.83;;
7181;SDS011;3632;42.724;23.298;2023-06-14T09:03:50;10.90;;;9.83;;
7181;SDS011;3632;42.724;23.298;2023-06-14T09:06:17;11.90;;;10.70;;
7181;SDS011;3632;42.724;23.298;2023-06-14T09:08:46;14.03;;;12.83;;
7181;SDS011;3632;42.724;23.298;2023-06-14T09:11:14;15.63;;;14.13;;
7181;SDS011;3632;42.724;23.298;2023-06-14T09:13:43;11.50;;;10.30;;
7181;SDS011;3632;42.724;23.298;2023-06-14T09:16:11;11.60;;;10.50;;
7181;SDS011;3632;42.724;23.298;2023-06-14T09:18:38;12.50;;;11.23;;
7181;SDS011;3632;42.724;23.298;2023-06-14T09:21:09;10.77;;;9.47;;
7181;SDS011;3632;42.724;23.298;2023-06-14T09:23:37;11.50;;;9.47;;
7181;SDS011;3632;42.724;23.298;2023-06-14T09:26:09;16.10;;;9.87;;
7181;SDS011;3632;42.724;23.298;2023-06-14T09:28:40;11.93;;;9.67;;
7181;SDS011;3632;42.724;23.298;2023-06-14T09:31:08;12.70;;;10.33;;
7181;SDS011;3632;42.724;23.298;2023-06-14T09:33:36;11.40;;;10.20;;
7181;SDS011;3632;42.724;23.298;2023-06-14T09:36:03;9.80;;;8.80;;
7181;SDS011;3632;42.724;23.298;2023-06-14T09:38:30;10.23;;;9.20;;
7181;SDS011;3632;42.724;23.298;2023-06-14T09:40:57;11.40;;;10.30;;
7181;SDS011;3632;42.724;23.298;2023-06-14T09:43:26;10.73;;;8.93;;
7181;SDS011;3632;42.724;23.298;2023-06-14T09:45:54;10.47;;;9.37;;
7181;SDS011;3632;42.724;23.298;2023-06-14T09:48:21;10.83;;;9.83;;
7181;SDS011;3632;42.724;23.298;2023-06-14T09:50:49;34.87;;;12.37;;
7181;SDS011;3632;42.724;23.298;2023-06-14T09:53:16;13.07;;;10.80;;
7181;SDS011;3632;42.724;23.298;2023-06-14T09:55:49;10.20;;;9.30;;
7181;SDS011;3632;42.724;23.298;2023-06-14T09:58:16;11.77;;;10.57;;
7181;SDS011;3632;42.724;23.298;2023-06-14T10:00:47;11.50;;;10.23;;
7181;SDS011;3632;42.724;23.298;2023-06-14T10:03:19;10.53;;;9.53;;
7181;SDS011;3632;42.724;23.298;2023-06-14T10:05:50;10.37;;;9.43;;
7181;SDS011;3632;42.724;23.298;2023-06-14T10:08:18;10.97;;;9.93;;
7181;SDS011;3632;42.724;23.298;2023-06-14T10:10:49;12.40;;;11.20;;
7181;SDS011;3632;42.724;23.298;2023-06-14T10:13:17;10.27;;;9.07;;
7181;SDS011;3632;42.724;23.298;2023-06-14T10:15:50;12.20;;;11.10;;
7181;SDS011;3632;42.724;23.298;2023-06-14T10:18:26;12.10;;;10.23;;
7181;SDS011;3632;42.724;23.298;2023-06-14T10:21:00;11.47;;;9.80;;
7181;SDS011;3632;42.724;23.298;2023-06-14T10:23:35;11.43;;;9.93;;
7181;SDS011;3632;42.724;23.298;2023-06-14T10:26:06;10.97;;;9.97;;
7181;SDS011;3632;42.724;23.298;2023-06-14T10:28:32;10.07;;;9.20;;
7181;SDS011;3632;42.724;23.298;2023-06-14T10:31:06;11.50;;;10.40;;
7181;SDS011;3632;42.724;23.298;2023-06-14T10:33:33;10.93;;;9.87;;
7181;SDS011;3632;42.724;23.298;2023-06-14T10:36:07;11.73;;;10.63;;
7181;SDS011;3632;42.724;23.298;2023-06-14T10:38:36;16.67;;;14.97;;
7181;SDS011;3632;42.724;23.298;2023-06-14T10:41:04;11.20;;;10.20;;
7181;SDS011;3632;42.724;23.298;2023-06-14T10:43:32;11.30;;;10.30;;
7181;SDS011;3632;42.724;23.298;2023-06-14T10:46:16;11.40;;;9.80;;
7181;SDS011;3632;42.724;23.298;2023-06-14T10:48:48;11.63;;;10.47;;
7181;SDS011;3632;42.724;23.298;2023-06-14T10:51:15;11.70;;;10.13;;
7181;SDS011;3632;42.724;23.298;2023-06-14T10:53:46;10.60;;;9.57;;
7181;SDS011;3632;42.724;23.298;2023-06-14T10:56:27;10.93;;;9.93;;
7181;SDS011;3632;42.724;23.298;2023-06-14T10:58:56;17.43;;;15.73;;
7181;SDS011;3632;42.724;23.298;2023-06-14T11:01:29;12.47;;;11.27;;
7181;SDS011;3632;42.724;23.298;2023-06-14T11:04:10;10.80;;;9.77;;
7181;SDS011;3632;42.724;23.298;2023-06-14T11:06:47;10.60;;;9.50;;
7181;SDS011;3632;42.724;23.298;2023-06-14T11:12:19;11.30;;;9.90;;
7181;SDS011;3632;42.724;23.298;2023-06-14T11:14:47;10.97;;;9.87;;
7181;SDS011;3632;42.724;23.298;2023-06-14T11:17:16;12.33;;;11.10;;
7181;SDS011;3632;42.724;23.298;2023-06-14T11:19:43;11.30;;;10.10;;
7181;SDS011;3632;42.724;23.298;2023-06-14T11:22:10;14.83;;;11.80;;
7181;SDS011;3632;42.724;23.298;2023-06-14T11:24:37;15.60;;;14.10;;
7181;SDS011;3632;42.724;23.298;2023-06-14T11:27:04;13.50;;;12.10;;
7181;SDS011;3632;42.724;23.298;2023-06-14T11:29:31;16.50;;;15.00;;
7181;SDS011;3632;42.724;23.298;2023-06-14T11:31:58;14.97;;;13.33;;
7181;SDS011;3632;42.724;23.298;2023-06-14T11:34:26;12.93;;;11.73;;
7181;SDS011;3632;42.724;23.298;2023-06-14T11:36:53;10.13;;;8.87;;
7181;SDS011;3632;42.724;23.298;2023-06-14T11:39:23;10.80;;;9.87;;
7181;SDS011;3632;42.724;23.298;2023-06-14T11:41:52;10.37;;;9.40;;
7181;SDS011;3632;42.724;23.298;2023-06-14T11:44:20;11.23;;;10.13;;
7181;SDS011;3632;42.724;23.298;2023-06-14T11:46:47;9.73;;;8.80;;
7181;SDS011;3632;42.724;23.298;2023-06-14T11:49:13;9.70;;;8.87;;
7181;SDS011;3632;42.724;23.298;2023-06-14T11:51:42;9.83;;;8.83;;
7181;SDS011;3632;42.724;23.298;2023-06-14T11:54:09;9.00;;;7.97;;
7181;SDS011;3632;42.724;23.298;2023-06-14T11:56:36;11.60;;;8.50;;
7181;SDS011;3632;42.724;23.298;2023-06-14T11:59:03;8.27;;;7.50;;
7181;SDS011;3632;42.724;23.298;2023-06-14T12:01:30;10.50;;;9.50;;
7181;SDS011;3632;42.724;23.298;2023-06-14T12:03:58;9.03;;;8.23;;
7181;SDS011;3632;42.724;23.298;2023-06-14T12:06:26;10.10;;;8.20;;
7181;SDS011;3632;42.724;23.298;2023-06-14T12:08:59;9.07;;;8.17;;
7181;SDS011;3632;42.724;23.298;2023-06-14T12:11:31;11.13;;;8.20;;
7181;SDS011;3632;42.724;23.298;2023-06-14T12:13:59;8.53;;;7.63;;
7181;SDS011;3632;42.724;23.298;2023-06-14T12:16:29;9.53;;;8.60;;
7181;SDS011;3632;42.724;23.298;2023-06-14T12:18:59;8.60;;;7.80;;
7181;SDS011;3632;42.724;23.298;2023-06-14T12:21:27;8.43;;;7.60;;
7181;SDS011;3632;42.724;23.298;2023-06-14T12:23:54;9.60;;;8.70;;
7181;SDS011;3632;42.724;23.298;2023-06-14T12:26:22;8.70;;;7.90;;
7181;SDS011;3632;42.724;23.298;2023-06-14T12:28:52;8.45;;;7.68;;
7181;SDS011;3632;42.724;23.298;2023-06-14T12:31:18;7.55;;;6.85;;
7181;SDS011;3632;42.724;23.298;2023-06-14T12:33:46;10.10;;;9.10;;
7181;SDS011;3632;42.724;23.298;2023-06-14T12:36:14;8.35;;;7.53;;
7181;SDS011;3632;42.724;23.298;2023-06-14T12:38:40;9.23;;;8.32;;
7181;SDS011;3632;42.724;23.298;2023-06-14T12:41:07;8.30;;;7.53;;
7181;SDS011;3632;42.724;23.298;2023-06-14T12:43:36;8.55;;;7.85;;
7181;SDS011;3632;42.724;23.298;2023-06-14T12:46:02;8.75;;;7.95;;
7181;SDS011;3632;42.724;23.298;2023-06-14T12:48:29;8.02;;;7.32;;
7181;SDS011;3632;42.724;23.298;2023-06-14T12:50:56;7.57;;;6.73;;
7181;SDS011;3632;42.724;23.298;2023-06-14T12:53:23;7.83;;;7.17;;
7181;SDS011;3632;42.724;23.298;2023-06-14T12:55:50;6.97;;;6.30;;
7181;SDS011;3632;42.724;23.298;2023-06-14T12:58:17;6.07;;;5.57;;
7181;SDS011;3632;42.724;23.298;2023-06-14T13:00:46;5.93;;;5.37;;
7181;SDS011;3632;42.724;23.298;2023-06-14T13:03:13;6.93;;;6.37;;
7181;SDS011;3632;42.724;23.298;2023-06-14T13:05:41;6.50;;;5.90;;
7181;SDS011;3632;42.724;23.298;2023-06-14T13:08:08;8.47;;;7.77;;
7181;SDS011;3632;42.724;23.298;2023-06-14T13:10:35;7.07;;;6.40;;
7181;SDS011;3632;42.724;23.298;2023-06-14T13:13:02;6.63;;;6.03;;
7181;SDS011;3632;42.724;23.298;2023-06-14T13:15:29;7.13;;;5.33;;
7181;SDS011;3632;42.724;23.298;2023-06-14T13:17:57;12.80;;;11.50;;
7181;SDS011;3632;42.724;23.298;2023-06-14T13:20:24;11.03;;;9.93;;
7181;SDS011;3632;42.724;23.298;2023-06-14T13:22:51;9.87;;;8.97;;
7181;SDS011;3632;42.724;23.298;2023-06-14T13:25:17;10.03;;;8.83;;
7181;SDS011;3632;42.724;23.298;2023-06-14T13:27:44;10.03;;;8.97;;
7181;SDS011;3632;42.724;23.298;2023-06-14T13:30:11;7.23;;;6.53;;
7181;SDS011;3632;42.724;23.298;2023-06-14T13:32:38;6.70;;;6.10;;
7181;SDS011;3632;42.724;23.298;2023-06-14T13:35:07;10.67;;;6.57;;
7181;SDS011;3632;42.724;23.298;2023-06-14T13:37:34;10.53;;;6.47;;
7181;SDS011;3632;42.724;23.298;2023-06-14T13:40:00;7.30;;;6.47;;
7181;SDS011;3632;42.724;23.298;2023-06-14T13:42:27;7.17;;;6.20;;
7181;SDS011;3632;42.724;23.298;2023-06-14T13:44:57;8.50;;;7.70;;
7181;SDS011;3632;42.724;23.298;2023-06-14T13:47:24;8.57;;;7.40;;
7181;SDS011;3632;42.724;23.298;2023-06-14T13:49:51;10.13;;;9.13;;
7181;SDS011;3632;42.724;23.298;2023-06-14T13:52:19;9.07;;;8.13;;
7181;SDS011;3632;42.724;23.298;2023-06-14T13:54:46;6.40;;;5.80;;
7181;SDS011;3632;42.724;23.298;2023-06-14T13:57:12;7.03;;;6.33;;
7181;SDS011;3632;42.724;23.298;2023-06-14T13:59:39;7.50;;;6.80;;
7181;SDS011;3632;42.724;23.298;2023-06-14T14:02:06;8.33;;;7.40;;
7181;SDS011;3632;42.724;23.298;2023-06-14T14:04:34;8.60;;;7.70;;
7181;SDS011;3632;42.724;23.298;2023-06-14T14:07:01;8.50;;;7.40;;
7181;SDS011;3632;42.724;23.298;2023-06-14T14:09:29;8.00;;;7.23;;
7181;SDS011;3632;42.724;23.298;2023-06-14T14:11:56;7.90;;;7.17;;
7181;SDS011;3632;42.724;23.298;2023-06-14T14:14:23;7.67;;;6.60;;
7181;SDS011;3632;42.724;23.298;2023-06-14T14:16:51;8.07;;;7.30;;
7181;SDS011;3632;42.724;23.298;2023-06-14T14:19:18;6.93;;;6.23;;
7181;SDS011;3632;42.724;23.298;2023-06-14T14:21:45;7.57;;;6.80;;
7181;SDS011;3632;42.724;23.298;2023-06-14T14:24:12;7.60;;;6.13;;
7181;SDS011;3632;42.724;23.298;2023-06-14T14:26:40;7.77;;;7.07;;
7181;SDS011;3632;42.724;23.298;2023-06-14T14:29:07;9.50;;;7.70;;
7181;SDS011;3632;42.724;23.298;2023-06-14T14:31:36;9.97;;;7.67;;
7181;SDS011;3632;42.724;23.298;2023-06-14T14:34:03;7.67;;;6.43;;
7181;SDS011;3632;42.724;23.298;2023-06-14T14:36:30;7.03;;;6.43;;
7181;SDS011;3632;42.724;23.298;2023-06-14T14:38:58;10.93;;;7.50;;
7181;SDS011;3632;42.724;23.298;2023-06-14T14:41:25;10.43;;;8.10;;
7181;SDS011;3632;42.724;23.298;2023-06-14T14:43:53;10.07;;;7.80;;
7181;SDS011;3632;42.724;23.298;2023-06-14T14:46:20;8.90;;;8.00;;
7181;SDS011;3632;42.724;23.298;2023-06-14T14:48:50;12.73;;;8.10;;
7181;SDS011;3632;42.724;23.298;2023-06-14T14:51:17;7.93;;;7.23;;
7181;SDS011;3632;42.724;23.298;2023-06-14T14:53:43;12.07;;;7.27;;
7181;SDS011;3632;42.724;23.298;2023-06-14T14:56:10;16.73;;;7.27;;
7181;SDS011;3632;42.724;23.298;2023-06-14T14:58:37;10.77;;;6.77;;